Time;durP1;ratioP1;P1;durP2;ratioP2;P2;SDS_P1;SDS_P2;PMS_P1;PMS_P2;Temp;Humidity;BMP_temperature;BMP_pressure;BME280_temperature;BME280_humidity;BME280_pressure;Samples;Min_cycle;Max_cycle;Signal;HPM_P1;HPM_P2
2023/07/16 00:00:31;;;;;;;6.00;5.10;;;;;;;23.26;57.36;100383.71;105519;1273;97907;-79
2023/07/16 00:03:37;;;;;;;9.30;5.10;;;;;;;23.20;57.62;100382.20;105831;1270;103572;-80
2023/07/16 00:06:22;;;;;;;6.30;5.30;;;;;;;23.17;57.69;100384.23;105708;1273;100557;-80
2023/07/16 00:09:08;;;;;;;5.10;4.60;;;;;;;23.13;57.97;100383.63;105700;1275;97969;-79
2023/07/16 00:11:53;;;;;;;7.30;5.90;;;;;;;23.07;58.16;100384.88;106086;1270;96610;-80
2023/07/16 00:14:39;;;;;;;7.70;5.70;;;;;;;23.04;58.43;100381.98;106168;1271;96607;-80
2023/07/16 00:17:25;;;;;;;6.90;4.90;;;;;;;23.03;58.36;100380.35;106242;1270;100076;-79
2023/07/16 00:20:11;;;;;;;8.80;5.50;;;;;;;22.99;58.67;100380.79;105923;1271;99221;-80
2023/07/16 00:22:57;;;;;;;8.30;5.60;;;;;;;22.98;58.53;100380.30;106174;1270;97795;-80
2023/07/16 00:25:42;;;;;;;6.90;4.60;;;;;;;22.99;58.62;100378.55;106020;1276;95011;-80
2023/07/16 00:28:29;;;;;;;8.90;4.90;;;;;;;23.00;58.94;100374.23;106360;1276;96482;-80
2023/07/16 00:31:14;;;;;;;7.20;5.00;;;;;;;22.98;58.88;100370.56;105731;1271;100047;-80
2023/07/16 00:34:01;;;;;;;5.30;4.80;;;;;;;22.97;58.83;100370.73;105676;1276;99216;-80
2023/07/16 00:36:46;;;;;;;13.30;4.90;;;;;;;22.95;58.83;100372.15;105478;1271;97814;-80
2023/07/16 00:39:32;;;;;;;5.30;4.80;;;;;;;22.93;58.88;100372.20;105487;1275;97581;-80
2023/07/16 00:42:17;;;;;;;5.70;4.70;;;;;;;22.91;59.20;100369.63;105526;1270;96576;-80
2023/07/16 00:45:09;;;;;;;6.50;5.30;;;;;;;22.88;59.18;100369.84;105424;1275;101149;-80
2023/07/16 00:47:55;;;;;;;8.00;5.00;;;;;;;22.87;59.25;100366.80;105499;1271;99139;-80
2023/07/16 00:50:41;;;;;;;5.30;4.80;;;;;;;22.86;59.40;100362.48;105485;1274;97857;-80
2023/07/16 00:53:26;;;;;;;7.30;4.90;;;;;;;22.86;59.51;100362.48;105436;1276;96566;-80
2023/07/16 00:56:17;;;;;;;8.30;5.70;;;;;;;22.85;59.76;100363.41;105900;1273;96947;-79
2023/07/16 00:59:03;;;;;;;8.10;4.60;;;;;;;22.83;59.54;100359.86;107629;1270;100081;-80
2023/07/16 01:01:49;;;;;;;6.70;4.70;;;;;;;22.83;59.67;100356.14;106963;1273;100461;-80
2023/07/16 01:04:34;;;;;;;5.20;4.80;;;;;;;22.83;59.80;100356.35;106089;1270;97754;-80
2023/07/16 01:07:23;;;;;;;5.90;5.10;;;;;;;22.82;60.08;100352.32;105952;1270;96640;-80
2023/07/16 01:10:09;;;;;;;5.20;4.70;;;;;;;22.81;60.12;100348.66;106226;1270;96978;-80
2023/07/16 01:12:57;;;;;;;6.40;5.10;;;;;;;22.80;60.19;100347.90;106325;1270;100670;-80
2023/07/16 01:15:43;;;;;;;10.00;5.10;;;;;;;22.76;60.40;100341.23;106227;1274;99674;-80
2023/07/16 01:18:29;;;;;;;8.40;5.70;;;;;;;22.73;60.68;100339.70;106045;1271;99006;-80
2023/07/16 01:21:18;;;;;;;7.00;5.00;;;;;;;22.71;60.75;100337.89;105978;1271;96646;-80
2023/07/16 01:24:24;;;;;;;8.60;5.10;;;;;;;22.69;60.81;100339.10;105931;1270;97151;-79
2023/07/16 01:27:17;;;;;;;7.30;4.70;;;;;;;22.68;60.77;100336.14;106028;1271;100030;-79
2023/07/16 01:30:04;;;;;;;5.90;5.30;;;;;;;22.68;60.91;100333.69;106219;1271;100465;-80
2023/07/16 01:32:50;;;;;;;5.60;5.10;;;;;;;22.66;61.24;100329.36;106019;1270;97939;-79
2023/07/16 01:35:37;;;;;;;8.20;4.80;;;;;;;22.61;61.31;100327.08;105751;1276;96709;-80
2023/07/16 01:38:23;;;;;;;7.40;5.40;;;;;;;22.58;61.49;100325.15;105552;1270;97109;-80
2023/07/16 01:41:09;;;;;;;7.00;5.50;;;;;;;22.58;61.45;100324.54;105646;1270;100678;-80
2023/07/16 01:43:54;;;;;;;6.40;5.40;;;;;;;22.56;61.73;100323.16;105986;1270;99161;-80
2023/07/16 01:46:40;;;;;;;6.60;5.00;;;;;;;22.54;61.86;100321.96;105661;1270;98571;-80
2023/07/16 01:49:25;;;;;;;6.80;5.80;;;;;;;22.49;62.09;100319.39;105940;1276;96612;-80
2023/07/16 01:52:13;;;;;;;5.90;5.20;;;;;;;22.43;62.25;100315.23;106080;1271;98250;-80
2023/07/16 01:54:58;;;;;;;8.30;6.00;;;;;;;22.39;62.42;100311.41;105748;1270;100113;-80
2023/07/16 01:57:44;;;;;;;8.40;5.90;;;;;;;22.36;62.87;100309.27;106044;1275;99124;-81
2023/07/16 02:00:29;;;;;;;7.20;6.00;;;;;;;22.32;63.17;100308.40;105922;1273;97850;-80
2023/07/16 02:03:14;;;;;;;7.70;6.20;;;;;;;22.28;63.22;100300.14;106078;1270;96577;-80
2023/07/16 02:06:00;;;;;;;8.00;6.50;;;;;;;22.23;63.24;100299.20;105940;1271;96570;-81
2023/07/16 02:08:45;;;;;;;7.30;6.60;;;;;;;22.20;63.36;100299.10;105884;1274;100086;-80
2023/07/16 02:11:32;;;;;;;8.10;6.80;;;;;;;22.19;63.71;100301.06;106114;1274;100953;-80
2023/07/16 02:14:17;;;;;;;8.30;5.90;;;;;;;22.19;63.92;100297.14;106075;1270;99575;-80
2023/07/16 02:17:03;;;;;;;7.50;6.20;;;;;;;22.17;63.90;100296.80;105995;1273;96628;-80
2023/07/16 02:19:49;;;;;;;8.10;6.90;;;;;;;22.15;64.12;100292.27;105946;1273;96417;-80
2023/07/16 02:22:35;;;;;;;7.90;6.30;;;;;;;22.12;64.28;100291.49;105974;1275;100009;-80
2023/07/16 02:25:20;;;;;;;6.70;5.70;;;;;;;22.11;64.53;100289.20;105751;1275;99988;-81
2023/07/16 02:28:06;;;;;;;7.40;6.20;;;;;;;22.10;64.68;100291.06;105983;1274;106395;-80
2023/07/16 02:30:52;;;;;;;7.20;6.50;;;;;;;22.08;64.79;100300.00;105940;1270;96660;-80
2023/07/16 02:33:37;;;;;;;8.30;5.90;;;;;;;22.07;64.92;100302.94;105785;1273;96644;-80
2023/07/16 02:36:23;;;;;;;6.40;5.60;;;;;;;22.06;65.10;100308.34;105696;1271;100204;-81
2023/07/16 02:39:08;;;;;;;7.90;6.30;;;;;;;22.05;65.21;100308.27;105934;1275;99184;-81
2023/07/16 02:41:54;;;;;;;8.20;6.90;;;;;;;22.04;65.36;100307.08;106003;1273;97723;-81
2023/07/16 02:44:44;;;;;;;8.50;6.70;;;;;;;22.04;65.51;100305.49;106069;1275;97161;-81
2023/07/16 02:47:29;;;;;;;11.40;7.60;;;;;;;22.02;65.83;100304.47;105692;1270;96524;-81
2023/07/16 02:50:14;;;;;;;9.30;7.20;;;;;;;22.00;65.98;100304.41;105869;1275;101816;-81
2023/07/16 02:53:00;;;;;;;7.80;7.00;;;;;;;21.97;66.22;100301.98;105990;1271;100288;-81
2023/07/16 02:55:46;;;;;;;9.40;7.00;;;;;;;21.96;66.21;100303.06;106026;1276;99211;-81
2023/07/16 02:58:32;;;;;;;8.40;7.30;;;;;;;21.95;66.26;100302.54;105930;1271;96590;-81
2023/07/16 03:01:19;;;;;;;9.20;6.90;;;;;;;21.93;66.39;100304.59;105906;1271;97799;-81
2023/07/16 03:04:05;;;;;;;9.90;6.70;;;;;;;21.94;66.48;100311.42;105963;1276;100031;-81
2023/07/16 03:06:50;;;;;;;8.40;6.60;;;;;;;21.94;66.69;100307.77;105842;1270;99150;-80
2023/07/16 03:09:36;;;;;;;8.10;6.60;;;;;;;21.92;66.71;100308.20;106012;1271;97765;-80
2023/07/16 03:12:21;;;;;;;8.20;7.30;;;;;;;21.93;66.94;100307.93;105980;1273;96580;-81
2023/07/16 03:15:07;;;;;;;8.70;7.10;;;;;;;21.92;67.14;100306.73;106032;1274;97133;-81
2023/07/16 03:17:52;;;;;;;10.20;7.00;;;;;;;21.92;67.13;100313.16;105950;1276;101275;-81
2023/07/16 03:20:39;;;;;;;9.90;7.40;;;;;;;21.92;67.09;100316.70;106001;1273;99208;-80
2023/07/16 03:23:25;;;;;;;7.80;7.00;;;;;;;21.92;67.12;100318.28;106013;1276;97786;-82
2023/07/16 03:26:11;;;;;;;7.70;6.70;;;;;;;21.94;67.36;100318.51;105825;1274;96593;-82
2023/07/16 03:28:56;;;;;;;8.60;6.60;;;;;;;21.96;67.51;100317.75;105924;1276;95944;-82
2023/07/16 03:31:42;;;;;;;9.00;6.90;;;;;;;21.97;67.45;100316.17;105997;1273;100070;-82
2023/07/16 03:34:29;;;;;;;8.00;7.20;;;;;;;21.99;67.50;100314.70;105899;1271;99209;-82
2023/07/16 03:37:15;;;;;;;7.90;7.10;;;;;;;22.01;67.82;100320.55;105832;1275;97840;-81
2023/07/16 03:40:17;;;;;;;8.80;7.50;;;;;;;22.00;67.85;100318.64;105879;1271;96605;-81
2023/07/16 03:43:04;;;;;;;9.00;7.50;;;;;;;22.01;67.94;100319.41;106052;1275;97377;-82
2023/07/16 03:45:50;;;;;;;7.10;6.40;;;;;;;22.01;68.18;100319.52;105774;1271;99822;-82
2023/07/16 03:48:36;;;;;;;10.00;7.40;;;;;;;22.03;68.37;100320.77;105752;1270;100381;-81
2023/07/16 03:51:22;;;;;;;7.30;6.30;;;;;;;22.06;68.04;100322.09;105880;1276;97834;-81
2023/07/16 03:54:07;;;;;;;8.60;7.10;;;;;;;22.09;68.52;100319.54;105806;1276;96576;-82
2023/07/16 03:56:54;;;;;;;7.50;6.70;;;;;;;22.12;68.55;100313.92;105760;1273;96548;-82
2023/07/16 03:59:39;;;;;;;10.40;7.40;;;;;;;22.13;68.50;100319.66;105494;1273;122782;-82
2023/07/16 04:02:25;;;;;;;10.50;6.80;;;;;;;22.13;68.57;100322.81;105916;1271;99055;-81
2023/07/16 04:05:11;;;;;;;9.70;7.00;;;;;;;22.16;68.89;100325.78;105822;1276;97687;-82
2023/07/16 04:07:56;;;;;;;8.20;7.20;;;;;;;22.20;68.91;100328.14;105826;1271;96057;-80
2023/07/16 04:10:41;;;;;;;11.20;8.20;;;;;;;22.23;69.00;100329.02;105903;1276;97838;-81
2023/07/16 04:13:27;;;;;;;7.90;7.10;;;;;;;22.27;69.10;100332.02;105928;1274;101289;-81
2023/07/16 04:16:12;;;;;;;9.40;7.30;;;;;;;22.30;69.54;100332.14;105775;1273;100156;-80
2023/07/16 04:18:58;;;;;;;8.00;7.20;;;;;;;22.32;69.44;100331.37;105788;1276;99105;-82
2023/07/16 04:21:43;;;;;;;10.40;7.20;;;;;;;22.35;69.63;100327.23;105924;1275;96548;-81
2023/07/16 04:24:29;;;;;;;9.20;7.30;;;;;;;22.38;69.72;100325.55;105888;1271;96619;-82
2023/07/16 04:27:14;;;;;;;8.70;7.30;;;;;;;22.43;69.97;100322.61;105857;1273;101080;-79
2023/07/16 04:30:00;;;;;;;12.50;7.50;;;;;;;22.49;70.17;100324.27;105959;1271;99119;-80
2023/07/16 04:32:46;;;;;;;8.50;6.80;;;;;;;22.57;70.19;100326.95;105945;1274;99019;-81
2023/07/16 04:35:33;;;;;;;8.30;6.60;;;;;;;22.64;70.16;100327.95;105883;1272;96583;-80
2023/07/16 04:38:19;;;;;;;11.30;7.90;;;;;;;22.72;70.29;100330.46;105757;1276;96546;-80
2023/07/16 04:41:04;;;;;;;8.20;7.10;;;;;;;22.78;70.27;100332.27;105929;1273;100037;-80
2023/07/16 04:43:50;;;;;;;7.80;6.70;;;;;;;22.84;70.43;100331.23;105751;1273;99896;-80
2023/07/16 04:46:35;;;;;;;7.90;7.10;;;;;;;22.92;70.27;100326.75;105736;1289;97785;-81
2023/07/16 04:49:21;;;;;;;8.10;6.90;;;;;;;22.99;70.23;100326.04;105931;1271;96627;-81
2023/07/16 04:52:07;;;;;;;8.30;7.10;;;;;;;23.05;70.48;100326.91;105896;1275;97916;-81
2023/07/16 04:54:52;;;;;;;11.50;7.60;;;;;;;23.12;70.75;100329.52;105733;1270;100103;-81
2023/07/16 04:57:37;;;;;;;7.50;6.70;;;;;;;23.19;70.96;100329.73;105755;1270;100517;-81
2023/07/16 05:00:23;;;;;;;7.80;6.90;;;;;;;23.26;71.11;100331.52;105822;1271;97811;-81
2023/07/16 05:03:09;;;;;;;7.20;6.50;;;;;;;23.33;71.18;100329.13;106047;1276;97092;-81
2023/07/16 05:05:54;;;;;;;9.70;7.30;;;;;;;23.41;70.95;100325.45;105989;1274;96941;-81
2023/07/16 05:08:39;;;;;;;7.30;6.40;;;;;;;23.51;70.79;100324.44;105704;1273;100019;-80
2023/07/16 05:11:26;;;;;;;9.40;6.40;;;;;;;23.60;70.40;100325.98;105939;1275;99625;-81
2023/07/16 05:14:12;;;;;;;7.90;7.10;;;;;;;23.71;70.67;100328.13;105730;1275;97827;-81
2023/07/16 05:16:57;;;;;;;8.30;6.50;;;;;;;23.81;70.31;100327.94;105303;1275;96581;-81
2023/07/16 05:19:43;;;;;;;7.70;6.40;;;;;;;23.92;70.53;100327.05;105356;1271;96532;-81
2023/07/16 05:22:29;;;;;;;11.20;7.00;;;;;;;24.02;70.62;100323.90;105373;1270;101023;-80
2023/07/16 05:25:14;;;;;;;7.40;6.30;;;;;;;24.14;70.72;100325.94;105262;1274;100436;-81
2023/07/16 05:28:00;;;;;;;6.90;6.30;;;;;;;24.25;70.40;100327.69;105168;1270;97911;-81
2023/07/16 05:30:45;;;;;;;6.90;6.20;;;;;;;24.35;70.13;100330.73;105175;1274;96606;-81
2023/07/16 05:33:31;;;;;;;8.80;6.10;;;;;;;24.44;70.20;100331.11;105371;1270;97116;-81
2023/07/16 05:36:16;;;;;;;7.20;6.50;;;;;;;24.55;70.38;100334.13;105308;1270;100677;-81
2023/07/16 05:39:02;;;;;;;9.80;6.90;;;;;;;24.66;70.55;100335.89;105354;1271;99178;-80
2023/07/16 05:41:48;;;;;;;7.40;6.30;;;;;;;24.77;70.17;100335.83;105563;1276;99053;-81
2023/07/16 05:44:33;;;;;;;6.70;5.70;;;;;;;24.88;69.80;100337.83;105646;1276;96617;-81
2023/07/16 05:47:19;;;;;;;7.50;6.50;;;;;;;25.00;69.93;100336.73;105842;1271;96667;-81
2023/07/16 05:50:05;;;;;;;7.40;6.70;;;;;;;25.12;69.55;100335.30;105899;1274;100014;-81
2023/07/16 05:52:51;;;;;;;7.70;6.30;;;;;;;25.25;68.83;100331.94;105745;1271;99122;-82
2023/07/16 05:55:36;;;;;;;6.40;5.20;;;;;;;25.38;68.23;100330.83;105798;1270;99104;-90
2023/07/16 05:58:35;;;;;;;6.30;5.50;;;;;;;25.52;67.71;100333.78;105199;1276;96661;-93
2023/07/16 06:05:33;;;;;;;8.80;5.50;;;;;;;25.82;66.52;100337.96;83820;1295;102753;-93
2023/07/16 06:13:08;;;;;;;;;;;;;;;26.23;65.77;100349.80;106456;1272;98969;-91
2023/07/16 06:19:52;;;;;;;7.00;4.70;;;;;;;26.55;65.11;100356.70;106726;1273;96593;-92
2023/07/16 06:22:41;;;;;;;7.20;4.90;;;;;;;26.72;64.37;100359.92;106298;1269;102819;-88
2023/07/16 06:25:27;;;;;;;6.50;4.80;;;;;;;26.88;63.50;100364.73;105917;1270;100051;-87
2023/07/16 06:28:13;;;;;;;5.20;4.80;;;;;;;27.03;62.88;100371.57;105735;1270;97825;-88
2023/07/16 06:30:59;;;;;;;6.40;4.30;;;;;;;27.16;62.35;100374.59;105930;1270;96474;-89
2023/07/16 06:33:49;;;;;;;6.30;4.80;;;;;;;27.28;62.22;100376.89;105917;1276;95857;-90
2023/07/16 06:36:59;;;;;;;4.50;4.10;;;;;;;27.41;61.06;100376.91;105344;1276;100033;-86
2023/07/16 06:39:45;;;;;;;7.60;4.60;;;;;;;27.53;60.87;100378.36;105659;1271;100590;-84
2023/07/16 06:43:09;;;;;;;6.50;4.20;;;;;;;27.64;60.39;100384.75;105675;1276;106667;-91
2023/07/16 06:45:54;;;;;;;5.40;4.40;;;;;;;27.76;59.36;100381.38;105966;1268;96612;-85
2023/07/16 06:48:40;;;;;;;5.80;4.10;;;;;;;27.86;58.87;100382.86;105779;1268;96631;-89
2023/07/16 06:51:30;;;;;;;7.40;4.10;;;;;;;27.96;58.38;100386.97;105533;1274;100610;-89
2023/07/16 06:54:21;;;;;;;6.70;3.90;;;;;;;28.06;57.34;100381.43;105854;1269;99220;-89
2023/07/16 06:57:06;;;;;;;5.50;4.30;;;;;;;28.16;56.56;100384.27;105889;1271;97784;-89
2023/07/16 06:59:53;;;;;;;5.60;4.40;;;;;;;28.25;56.50;100379.11;105929;1271;96637;-92
2023/07/16 07:02:39;;;;;;;5.60;4.70;;;;;;;28.34;56.74;100380.89;105887;1270;95881;-89
2023/07/16 07:05:25;;;;;;;7.40;4.90;;;;;;;28.44;56.90;100381.05;105927;1270;100045;-89
2023/07/16 07:08:11;;;;;;;6.60;4.50;;;;;;;28.54;56.41;100375.47;105837;1270;99220;-89
2023/07/16 07:10:57;;;;;;;4.70;4.30;;;;;;;28.64;55.88;100368.93;106006;1276;98325;-87
2023/07/16 07:13:43;;;;;;;5.10;4.70;;;;;;;28.73;55.25;100361.55;105111;1269;96605;-83
2023/07/16 07:16:29;;;;;;;4.50;4.10;;;;;;;28.81;54.76;100363.23;105312;1271;96452;-87
2023/07/16 07:19:14;;;;;;;5.20;4.70;;;;;;;28.89;54.41;100371.10;105718;1273;101428;-85
2023/07/16 07:22:03;;;;;;;5.50;4.50;;;;;;;28.97;53.73;100373.83;105399;1272;99156;-90
2023/07/16 07:24:49;;;;;;;6.00;4.90;;;;;;;29.06;53.73;100367.23;104892;1270;99924;-86
2023/07/16 07:27:35;;;;;;;5.30;4.90;;;;;;;29.13;53.09;100364.69;105426;1270;96658;-88
2023/07/16 07:30:20;;;;;;;6.30;4.30;;;;;;;29.20;52.82;100363.52;105293;1268;96591;-84
2023/07/16 07:33:06;;;;;;;4.50;3.80;;;;;;;29.25;52.38;100354.41;105191;1273;101424;-83
2023/07/16 07:35:55;;;;;;;5.70;4.90;;;;;;;29.30;52.89;100350.51;105262;1270;99871;-83
2023/07/16 07:38:41;;;;;;;8.20;5.20;;;;;;;29.38;52.87;100351.67;105312;1270;98726;-89
2023/07/16 07:41:27;;;;;;;5.90;5.00;;;;;;;29.45;52.38;100346.42;105831;1271;96734;-91
2023/07/16 07:44:24;;;;;;;5.70;4.90;;;;;;;29.52;52.24;100336.13;106048;1268;96593;-89
2023/07/16 07:47:10;;;;;;;5.10;4.60;;;;;;;29.58;52.16;100331.54;105520;1275;100085;-88
2023/07/16 07:49:56;;;;;;;5.60;5.10;;;;;;;29.65;52.43;100333.16;105574;1268;100396;-87
2023/07/16 07:52:42;;;;;;;8.20;5.50;;;;;;;29.73;52.67;100330.02;105944;1269;99123;-89
2023/07/16 07:55:28;;;;;;;10.10;5.40;;;;;;;29.81;52.26;100327.60;106174;1268;97175;-92
2023/07/16 07:58:14;;;;;;;7.80;5.30;;;;;;;29.90;52.07;100324.62;106010;1269;96456;-87
2023/07/16 08:01:11;;;;;;;5.70;5.10;;;;;;;29.99;52.31;100320.02;106113;1270;99987;-88
2023/07/16 08:04:31;;;;;;;7.30;5.40;;;;;;;30.11;51.68;100317.45;105625;1268;101751;-91
2023/07/16 08:07:22;;;;;;;8.10;5.70;;;;;;;30.22;51.47;100320.48;106018;1268;99086;-94
2023/07/16 08:10:08;;;;;;;6.70;5.10;;;;;;;30.31;51.42;100326.25;105599;1268;96650;-87
2023/07/16 08:12:53;;;;;;;6.50;5.40;;;;;;;30.40;50.98;100324.14;106100;1269;96685;-85
2023/07/16 08:15:39;;;;;;;5.80;5.20;;;;;;;30.49;50.72;100319.77;105497;1269;100081;-82
2023/07/16 08:18:24;;;;;;;6.30;5.60;;;;;;;30.57;50.18;100319.20;105373;1271;99835;-85
2023/07/16 08:21:10;;;;;;;5.80;5.00;;;;;;;30.64;49.90;100317.30;105219;1269;97806;-85
2023/07/16 08:23:55;;;;;;;8.80;5.50;;;;;;;30.71;49.62;100314.46;105140;1270;96651;-84
2023/07/16 08:26:41;;;;;;;10.30;5.30;;;;;;;30.77;49.68;100308.50;104931;1268;95912;-84
2023/07/16 08:29:27;;;;;;;6.60;5.90;;;;;;;30.83;49.45;100309.13;105360;1273;101215;-85
2023/07/16 08:32:12;;;;;;;7.20;6.10;;;;;;;30.91;49.19;100313.05;105214;1273;99181;-85
2023/07/16 08:34:58;;;;;;;6.50;5.60;;;;;;;30.97;49.18;100318.52;105193;1270;98641;-84
2023/07/16 08:37:44;;;;;;;8.90;5.90;;;;;;;31.04;48.78;100319.45;105163;1276;96651;-84
2023/07/16 08:40:29;;;;;;;7.60;5.50;;;;;;;31.11;48.64;100315.42;105479;1270;97017;-85
2023/07/16 08:43:18;;;;;;;6.00;5.40;;;;;;;31.18;47.96;100314.92;105296;1270;101296;-87
2023/07/16 08:46:04;;;;;;;5.70;5.20;;;;;;;31.23;47.80;100314.91;105275;1268;99205;-84
2023/07/16 08:48:51;;;;;;;7.80;5.50;;;;;;;31.28;47.75;100317.73;105364;1271;98636;-84
2023/07/16 08:51:38;;;;;;;5.60;5.20;;;;;;;31.34;47.73;100313.14;105122;1274;96711;-85
2023/07/16 08:54:25;;;;;;;8.00;5.70;;;;;;;31.40;47.85;100306.86;105541;1273;96557;-86
2023/07/16 08:57:12;;;;;;;6.50;5.50;;;;;;;31.47;48.01;100306.55;105096;1274;100174;-84
2023/07/16 08:59:58;;;;;;;10.00;5.60;;;;;;;31.55;48.04;100308.71;105309;1268;100469;-84
2023/07/16 09:02:44;;;;;;;9.80;5.80;;;;;;;31.59;47.31;100311.17;105307;1269;97808;-83
2023/07/16 09:05:29;;;;;;;9.70;5.50;;;;;;;31.61;46.90;100309.05;105190;1268;96535;-83
2023/07/16 09:08:15;;;;;;;8.30;5.30;;;;;;;31.63;46.89;100310.05;105503;1268;97053;-83
2023/07/16 09:11:01;;;;;;;7.00;5.00;;;;;;;31.64;46.78;100313.92;105518;1268;101301;-85
2023/07/16 09:13:47;;;;;;;11.10;5.20;;;;;;;31.69;47.39;100310.94;105372;1273;99169;-85
2023/07/16 09:16:33;;;;;;;6.10;4.70;;;;;;;31.74;47.45;100315.66;105560;1268;97833;-84
2023/07/16 09:19:21;;;;;;;5.80;4.90;;;;;;;31.79;46.83;100318.46;105422;1272;96682;-84
2023/07/16 09:22:09;;;;;;;6.00;4.90;;;;;;;31.82;47.09;100323.44;105121;1273;97328;-84
2023/07/16 09:24:56;;;;;;;7.40;5.20;;;;;;;31.87;46.84;100327.02;105147;1272;100953;-84
2023/07/16 09:27:42;;;;;;;6.00;5.00;;;;;;;31.87;46.32;100328.23;105333;1270;99204;-84
2023/07/16 09:30:32;;;;;;;6.30;4.90;;;;;;;31.86;46.31;100325.56;105144;1275;97770;-84
2023/07/16 09:33:19;;;;;;;;;;;;;;;31.87;46.42;100329.43;105295;1274;96726;-85
2023/07/16 09:36:05;;;;;;;5.80;5.30;;;;;;;31.88;46.57;100330.02;105394;1268;96899;-85
2023/07/16 09:38:54;;;;;;;7.20;4.60;;;;;;;31.94;46.59;100328.84;105160;1274;100101;-84
2023/07/16 09:41:41;;;;;;;8.80;4.80;;;;;;;32.01;46.66;100330.30;105244;1268;99240;-85
2023/07/16 09:44:28;;;;;;;7.20;5.10;;;;;;;32.08;46.91;100331.45;105342;1273;99600;-85
2023/07/16 09:47:14;;;;;;;8.30;4.90;;;;;;;32.16;46.90;100331.92;105457;1268;96412;-84
2023/07/16 09:50:00;;;;;;;9.10;5.30;;;;;;;32.25;46.94;100323.25;105519;1271;96443;-84
2023/07/16 09:52:47;;;;;;;5.40;4.90;;;;;;;32.32;46.37;100335.65;105174;1276;100672;-84
2023/07/16 09:55:35;;;;;;;7.60;5.20;;;;;;;32.30;45.73;100344.12;105267;1268;100257;-85
2023/07/16 09:58:22;;;;;;;7.20;6.20;;;;;;;32.22;45.40;100344.67;105189;1269;97800;-83
2023/07/16 10:01:09;;;;;;;5.50;5.00;;;;;;;32.14;45.11;100344.70;105376;1275;96683;-84
2023/07/16 10:03:54;;;;;;;5.40;4.80;;;;;;;32.05;45.12;100347.04;105095;1268;96746;-84
2023/07/16 10:06:50;;;;;;;11.30;5.10;;;;;;;32.02;45.33;100350.60;105003;1268;100002;-84
2023/07/16 10:09:56;;;;;;;11.50;4.80;;;;;;;32.05;45.46;100350.71;105231;1268;101347;-84
2023/07/16 10:12:54;;;;;;;5.50;5.00;;;;;;;32.12;45.41;100345.55;105066;1268;98945;-83
2023/07/16 10:16:01;;;;;;;8.30;5.40;;;;;;;32.22;45.71;100346.11;105290;1268;96761;-84
2023/07/16 10:18:53;;;;;;;7.10;5.00;;;;;;;32.30;45.75;100348.09;105293;1268;96641;-88
2023/07/16 10:21:39;;;;;;;7.60;4.80;;;;;;;32.32;45.49;100343.74;105466;1274;101285;-84
2023/07/16 10:24:27;;;;;;;8.00;4.70;;;;;;;32.25;44.72;100347.16;105501;1273;99258;-85
2023/07/16 10:27:15;;;;;;;9.10;4.90;;;;;;;32.17;44.56;100348.73;105239;1274;97820;-86
2023/07/16 10:30:02;;;;;;;6.50;5.20;;;;;;;32.14;44.59;100353.40;105170;1268;96621;-83
2023/07/16 10:32:52;;;;;;;6.80;4.40;;;;;;;32.15;44.17;100351.11;105318;1273;97105;-84
2023/07/16 10:35:41;;;;;;;7.30;5.10;;;;;;;32.10;44.18;100344.45;105114;1273;101449;-82
2023/07/16 10:38:27;;;;;;;5.70;4.60;;;;;;;32.10;44.63;100349.13;105112;1268;100484;-83
2023/07/16 10:41:13;;;;;;;5.50;5.00;;;;;;;32.18;45.34;100353.95;105109;1268;97838;-83
2023/07/16 10:44:00;;;;;;;6.60;5.10;;;;;;;32.20;44.83;100352.34;105171;1268;96726;-82
2023/07/16 10:46:46;;;;;;;8.60;4.90;;;;;;;32.19;44.42;100354.44;105261;1273;96976;-83
2023/07/16 10:49:31;;;;;;;6.40;4.50;;;;;;;32.18;44.61;100352.14;105407;1268;100819;-84
2023/07/16 10:52:16;;;;;;;9.20;5.20;;;;;;;32.17;43.77;100348.91;105716;1274;99543;-89
2023/07/16 10:55:02;;;;;;;6.90;4.60;;;;;;;32.11;43.64;100355.56;105881;1273;98944;-86
2023/07/16 10:57:49;;;;;;;7.70;4.20;;;;;;;32.11;43.96;100354.20;105668;1268;96667;-81
2023/07/16 11:00:41;;;;;;;6.20;4.90;;;;;;;32.18;43.60;100353.63;105229;1274;96818;-82
2023/07/16 11:03:27;;;;;;;5.20;4.70;;;;;;;32.22;43.33;100354.09;105626;1274;100558;-84
2023/07/16 11:06:15;;;;;;;5.90;4.40;;;;;;;32.21;43.45;100353.27;105927;1269;99686;-88
2023/07/16 11:09:11;;;;;;;6.70;4.10;;;;;;;32.31;43.75;100348.21;105326;1276;97728;-85
2023/07/16 11:12:05;;;;;;;12.50;4.90;;;;;;;32.42;43.75;100347.23;106020;1268;96610;-87
2023/07/16 11:14:56;;;;;;;5.30;4.40;;;;;;;32.45;42.95;100354.85;105781;1268;96640;-82
2023/07/16 11:17:42;;;;;;;8.80;4.10;;;;;;;32.37;42.14;100364.49;105779;1268;100068;-83
2023/07/16 11:20:29;;;;;;;5.60;3.90;;;;;;;32.20;41.73;100364.38;105751;1273;99150;-82
2023/07/16 11:23:14;;;;;;;5.70;3.80;;;;;;;32.07;41.97;100368.69;105809;1268;97776;-83
2023/07/16 11:26:02;;;;;;;6.90;3.80;;;;;;;32.01;42.08;100371.64;105555;1268;96795;-82
2023/07/16 11:28:51;;;;;;;5.60;3.90;;;;;;;32.00;42.11;100372.13;105540;1268;97101;-83
2023/07/16 11:31:40;;;;;;;13.40;4.20;;;;;;;32.00;41.94;100374.90;105672;1268;100171;-82
2023/07/16 11:34:27;;;;;;;7.30;3.60;;;;;;;32.03;42.05;100380.48;105581;1268;100427;-92
2023/07/16 11:37:12;;;;;;;10.30;3.80;;;;;;;32.08;42.34;100380.07;105801;1276;99386;-89
2023/07/16 11:40:00;;;;;;;4.70;3.20;;;;;;;32.08;41.52;100386.02;106080;1276;96647;-90
2023/07/16 11:42:47;;;;;;;4.90;3.70;;;;;;;32.05;41.42;100383.84;105396;1278;97968;-87
2023/07/16 11:45:33;;;;;;;4.50;3.00;;;;;;;31.92;40.77;100386.14;105548;1273;100125;-86
2023/07/16 11:48:20;;;;;;;3.50;3.20;;;;;;;31.81;41.70;100389.31;105468;1273;109507;-87
2023/07/16 11:51:05;;;;;;;6.70;3.40;;;;;;;31.85;41.94;100387.59;105188;1277;97900;-83
2023/07/16 11:53:50;;;;;;;6.10;3.30;;;;;;;31.91;41.88;100386.95;105709;1268;96633;-83
2023/07/16 11:56:36;;;;;;;5.70;3.20;;;;;;;31.95;41.42;100386.20;105542;1269;96340;-85
2023/07/16 11:59:22;;;;;;;3.40;3.00;;;;;;;32.01;41.60;100387.48;105210;1273;101816;-85
2023/07/16 12:02:09;;;;;;;4.80;3.30;;;;;;;32.03;41.30;100388.90;105471;1274;99263;-89
2023/07/16 12:04:55;;;;;;;5.50;3.50;;;;;;;32.00;41.35;100387.13;105749;1268;98980;-89
2023/07/16 12:07:42;;;;;;;5.00;3.10;;;;;;;31.99;41.55;100386.75;105938;1268;96689;-91
2023/07/16 12:10:29;;;;;;;7.70;3.50;;;;;;;31.95;41.26;100387.77;105722;1268;96921;-88
2023/07/16 12:13:41;;;;;;;8.60;3.00;;;;;;;31.92;41.44;100389.44;105766;1269;102393;-91
2023/07/16 12:16:26;;;;;;;3.20;2.90;;;;;;;31.92;41.43;100386.73;105586;1275;100552;-89
2023/07/16 12:19:12;;;;;;;3.90;3.10;;;;;;;31.94;41.32;100383.63;105587;1274;97708;-81
2023/07/16 12:21:59;;;;;;;3.80;2.60;;;;;;;31.96;41.07;100381.35;105167;1273;96634;-87
2023/07/16 12:24:46;;;;;;;8.30;2.60;;;;;;;31.97;40.86;100378.92;105301;1268;96554;-81
2023/07/16 12:27:31;;;;;;;5.30;2.80;;;;;;;32.00;40.73;100376.58;105894;1274;101354;-88
2023/07/16 12:30:17;;;;;;;2.80;2.60;;;;;;;32.02;40.54;100378.16;105447;1273;99280;-85
2023/07/16 12:33:03;;;;;;;6.50;2.40;;;;;;;32.02;40.73;100377.70;105397;1270;99123;-85
2023/07/16 12:35:49;;;;;;;5.60;2.80;;;;;;;32.02;41.08;100375.54;105520;1273;96620;-85
2023/07/16 12:38:35;;;;;;;2.50;2.30;;;;;;;32.03;41.15;100378.77;105667;1273;96446;-85
2023/07/16 12:41:21;;;;;;;4.40;2.60;;;;;;;32.00;40.62;100373.33;105382;1273;101296;-85
2023/07/16 12:44:06;;;;;;;4.50;2.20;;;;;;;31.97;40.95;100368.63;105415;1272;100449;-84
2023/07/16 12:46:53;;;;;;;8.90;2.50;;;;;;;31.93;40.86;100367.70;105433;1269;100126;-86
2023/07/16 12:49:44;;;;;;;5.90;2.10;;;;;;;31.89;40.21;100368.50;105511;1268;96752;-86
2023/07/16 12:52:30;;;;;;;3.70;2.10;;;;;;;31.87;40.79;100374.99;105572;1274;97076;-90
2023/07/16 12:55:16;;;;;;;5.10;2.20;;;;;;;31.85;40.58;100376.11;105439;1268;100007;-85
2023/07/16 12:58:01;;;;;;;5.30;2.30;;;;;;;31.82;40.85;100373.70;105553;1273;99460;-82